Terminal Aerodrome Forecast
Issued by NWS Boston, MA

Home | Current Version | Previous Version | Text Only | Print | Product List | Glossary On
Versions: 1 2 3 4 5 6 7 8 9 10 11 12 13 14 15 16 17 18 19 20 21 22 23 24 25 26 27 28 29 30 31 32 33 34 35 36 37 38 39
000
FTUS41 KBOX 011120
TAFPVD
TAF
KPVD 011120Z 0112/0212 VRB03KT P6SM OVC150
     FM011500 15007KT P6SM VCSH OVC110
     FM011900 16008KT P6SM -RA OVC060
     FM012300 11006KT 5SM -RA BR OVC015
     FM020200 08006KT P6SM VCSH OVC007=

USA.gov is the U.S. government's official web portal to all federal, state and local government web resources and services.